aviador You're here:

KOVS Decoded Metar

BOSCOBEL in WI, USA
Report Time2017-08-19 14:37:00
UTC Time2017-08-19 14:54:35
Flight Rules lifr LIFR
WindCalm
Visibility2012 m
Phenomena:Mist
Clouds:Overcast 002 Hf
Ceiling200 ft
Temp17°C (ISA +3)
Dew Point17°C (100% RH)
QNH1016 hPa
Density Alt1,211 ft
Elevation663 ft
Report Wrong Elevation
Raw Report
KOVS 191437Z AUTO 00000KT 1 1/4SM BR OVC002 17/17 A2999 RMK AO2
T01720167=

Extra information for KOVS:More info

Metar Taf Metar & Taf Last 4 Metars F.Rules Stats Wind Profile Meteogram Temp Stats Airport Information Weather charts Add Link Nearby VenuesMetar ALERT Operation Metar Decoded Social comments

AIRNAV info for KOVS